Time;durP1;ratioP1;P1;durP2;ratioP2;P2;SDS_P1;SDS_P2;PMS_P1;PMS_P2;Temp;Humidity;BMP_temperature;BMP_pressure;BME280_temperature;BME280_humidity;BME280_pressure;Samples;Min_cycle;Max_cycle;Signal;HPM_P1;HPM_P2
2021/09/13 00:02:16;;;;;;;5.93;4.38;;;;;;;17.07;58.71;101867.16;4971691;28;123783;-63
2021/09/13 00:04:44;;;;;;;7.30;4.10;;;;;;;17.05;58.86;101869.06;4973351;28;114628;-63
2021/09/13 00:07:11;;;;;;;5.93;4.07;;;;;;;17.03;58.89;101864.75;4974747;28;113979;-63
2021/09/13 00:09:38;;;;;;;6.32;3.92;;;;;;;17.01;58.68;101866.63;4973480;28;123843;-63
2021/09/13 00:12:07;;;;;;;5.88;4.00;;;;;;;16.98;58.86;101861.47;4974903;28;124276;-63
2021/09/13 00:14:34;;;;;;;7.13;3.97;;;;;;;16.94;58.77;101860.75;4972281;28;115749;-63
2021/09/13 00:17:03;;;;;;;6.22;4.05;;;;;;;16.91;58.58;101861.81;4972565;28;115214;-63
2021/09/13 00:19:31;;;;;;;4.82;3.85;;;;;;;16.89;58.73;101861.00;4972969;28;124380;-63
2021/09/13 00:21:59;;;;;;;4.80;3.72;;;;;;;16.87;58.73;101857.53;4971911;28;124934;-62
2021/09/13 00:24:27;;;;;;;6.05;3.60;;;;;;;16.85;58.71;101862.13;4971862;28;114562;-63
2021/09/13 00:26:55;;;;;;;5.38;3.53;;;;;;;16.82;58.57;101856.97;4974317;28;114229;-63
2021/09/13 00:29:23;;;;;;;5.47;3.78;;;;;;;16.79;58.79;101857.09;4963457;28;124394;-63
2021/09/13 00:31:51;;;;;;;5.70;3.90;;;;;;;16.75;58.79;101852.84;4971618;28;124085;-63
2021/09/13 00:34:22;;;;;;;5.63;3.75;;;;;;;16.72;58.81;101845.00;4970547;28;115119;-63
2021/09/13 00:36:50;;;;;;;5.80;4.05;;;;;;;16.69;58.71;101850.53;4974331;28;114759;-63
2021/09/13 00:39:19;;;;;;;5.95;4.18;;;;;;;16.66;58.72;101850.69;4972033;28;123182;-63
2021/09/13 00:41:47;;;;;;;5.20;3.78;;;;;;;16.62;58.59;101849.13;4972759;28;124349;-63
2021/09/13 00:44:15;;;;;;;4.95;3.65;;;;;;;16.59;58.79;101850.13;4973152;28;114377;-63
2021/09/13 00:46:42;;;;;;;6.05;3.88;;;;;;;16.55;58.59;101838.75;4965075;28;112865;-63
2021/09/13 00:49:09;;;;;;;5.47;3.58;;;;;;;16.52;58.66;101838.94;4987942;28;122978;-63
2021/09/13 00:51:37;;;;;;;6.50;3.90;;;;;;;16.49;58.75;101839.09;4972381;28;122630;-63
2021/09/13 00:54:04;;;;;;;6.32;4.00;;;;;;;16.46;58.91;101844.63;4971960;28;114901;-63
2021/09/13 00:56:31;;;;;;;5.38;3.70;;;;;;;16.44;58.78;101838.47;4974314;28;114814;-63
2021/09/13 00:58:58;;;;;;;5.78;3.83;;;;;;;16.41;58.59;101841.31;4988869;28;122875;-63
2021/09/13 01:01:27;;;;;;;5.97;4.30;;;;;;;16.38;58.68;101841.47;4982750;28;122623;-63
2021/09/13 01:03:54;;;;;;;4.90;3.72;;;;;;;16.34;58.80;101830.06;4971529;28;114289;-63
2021/09/13 01:06:21;;;;;;;5.00;3.47;;;;;;;16.31;58.74;101840.06;4989265;28;114098;-63
2021/09/13 01:08:48;;;;;;;5.57;3.83;;;;;;;16.28;58.94;101834.91;4956769;28;123221;-62
2021/09/13 01:11:16;;;;;;;5.78;3.88;;;;;;;16.24;58.74;101833.34;4970829;28;123885;-62
2021/09/13 01:13:43;;;;;;;5.85;3.33;;;;;;;16.22;58.89;101837.88;4990016;28;113697;-62
2021/09/13 01:16:10;;;;;;;5.10;3.40;;;;;;;16.19;58.80;101835.38;4973102;28;114298;-62
2021/09/13 01:18:39;;;;;;;5.28;3.45;;;;;;;16.15;58.86;101838.19;4970484;28;124295;-62
2021/09/13 01:21:08;;;;;;;4.90;3.63;;;;;;;16.13;58.84;101837.44;4968552;28;123471;-62
2021/09/13 01:23:36;;;;;;;5.20;3.35;;;;;;;16.10;58.93;101832.22;4969136;28;114597;-62
2021/09/13 01:26:09;;;;;;;4.82;3.72;;;;;;;16.08;59.12;101831.44;4969231;28;113569;-62
2021/09/13 01:28:38;;;;;;;4.63;3.50;;;;;;;16.05;59.05;101833.41;4955061;28;123189;-62
2021/09/13 01:31:08;;;;;;;4.75;3.78;;;;;;;16.02;59.08;101834.44;4981998;28;123187;-62
2021/09/13 01:33:41;;;;;;;4.93;3.55;;;;;;;15.99;59.04;101834.59;4971596;28;114429;-62
2021/09/13 01:36:11;;;;;;;6.90;3.50;;;;;;;15.96;59.04;101834.78;4972792;28;113193;-62
2021/09/13 01:38:39;;;;;;;4.78;3.30;;;;;;;15.94;59.08;101834.84;4971499;28;123697;-62
2021/09/13 01:41:08;;;;;;;5.45;3.78;;;;;;;15.90;59.03;101829.75;4969247;28;122972;-62
2021/09/13 01:43:36;;;;;;;5.32;3.70;;;;;;;15.89;59.26;101844.03;4966283;28;113437;-62
2021/09/13 01:46:04;;;;;;;7.30;4.05;;;;;;;15.87;59.23;101840.59;4973018;28;113924;-65
2021/09/13 01:48:33;;;;;;;7.40;4.05;;;;;;;15.86;59.15;101844.19;4988186;28;123739;-64
2021/09/13 01:51:00;;;;;;;6.00;4.25;;;;;;;15.85;59.33;101837.13;4971654;28;124629;-63
2021/09/13 01:53:28;;;;;;;6.15;4.15;;;;;;;15.83;59.21;101836.34;4971842;28;115008;-62
2021/09/13 01:55:57;;;;;;;5.65;3.63;;;;;;;15.81;59.25;101832.91;4971775;28;114514;-63
2021/09/13 01:58:25;;;;;;;6.50;4.60;;;;;;;15.78;59.46;101836.56;4987959;28;123947;-63
2021/09/13 02:00:52;;;;;;;4.85;3.95;;;;;;;15.76;59.30;101839.34;4954342;28;123351;-63
2021/09/13 02:03:21;;;;;;;6.80;4.38;;;;;;;15.75;59.34;101836.75;4977860;28;114240;-63
2021/09/13 02:05:51;;;;;;;6.70;4.60;;;;;;;15.73;59.44;101834.16;4971860;28;113350;-63
2021/09/13 02:08:24;;;;;;;5.45;4.10;;;;;;;15.71;59.46;101841.34;4987615;28;123151;-63
2021/09/13 02:10:51;;;;;;;7.50;4.03;;;;;;;15.71;59.47;101848.50;4972075;28;122972;-63
2021/09/13 02:13:19;;;;;;;6.28;4.25;;;;;;;15.67;59.46;101845.13;4972542;28;113548;-63
2021/09/13 02:15:46;;;;;;;7.40;4.18;;;;;;;15.65;59.51;101847.00;4971530;28;113074;-63
2021/09/13 02:18:17;;;;;;;6.00;4.55;;;;;;;15.63;59.58;101848.84;4969642;28;123159;-63
2021/09/13 02:20:51;;;;;;;7.03;4.53;;;;;;;15.60;59.61;101843.69;4987505;28;127145;-63
2021/09/13 02:23:19;;;;;;;7.70;5.00;;;;;;;15.59;59.62;101847.28;4971998;28;113805;-63
2021/09/13 02:25:47;;;;;;;6.15;4.43;;;;;;;15.59;59.63;101847.28;4972847;28;96851;-63
2021/09/13 02:28:15;;;;;;;7.60;4.47;;;;;;;15.57;59.62;101838.50;4970650;28;123134;-63
2021/09/13 02:30:42;;;;;;;6.82;4.70;;;;;;;15.56;59.64;101831.44;4969859;28;124112;-63
2021/09/13 02:33:12;;;;;;;7.93;4.57;;;;;;;15.54;59.61;101838.66;4972734;28;115138;-63
2021/09/13 02:35:40;;;;;;;7.05;4.50;;;;;;;15.52;59.58;101836.06;4971193;28;114370;-63
2021/09/13 02:38:07;;;;;;;6.03;4.35;;;;;;;15.50;59.53;101832.63;4970135;28;124227;-63
2021/09/13 02:40:36;;;;;;;7.80;4.88;;;;;;;15.48;59.73;101838.94;4969181;28;122984;-63
2021/09/13 02:43:03;;;;;;;6.07;4.38;;;;;;;15.45;59.69;101831.13;4969858;28;114947;-63
2021/09/13 02:45:30;;;;;;;7.38;4.50;;;;;;;15.44;59.63;101837.38;4987790;28;114629;-63
2021/09/13 02:47:58;;;;;;;7.90;5.00;;;;;;;15.43;59.70;101835.66;4987554;28;123353;-63
2021/09/13 02:50:26;;;;;;;8.05;4.97;;;;;;;15.41;59.54;101829.50;4967310;28;123800;-63
2021/09/13 02:52:53;;;;;;;8.20;4.93;;;;;;;15.40;59.54;101841.16;4971085;28;114369;-63
2021/09/13 02:55:21;;;;;;;6.05;4.07;;;;;;;15.36;59.66;101830.59;4970675;28;114614;-63
2021/09/13 02:57:50;;;;;;;6.57;4.38;;;;;;;15.33;59.55;101825.44;4987453;28;123283;-63
2021/09/13 03:00:20;;;;;;;6.15;4.18;;;;;;;15.31;59.65;101827.31;4970336;28;122985;-63
2021/09/13 03:02:52;;;;;;;5.60;3.92;;;;;;;15.28;59.86;101824.78;4976866;28;113510;-63
2021/09/13 03:05:19;;;;;;;7.65;4.43;;;;;;;15.28;59.76;101832.81;4970927;28;113163;-63
2021/09/13 03:07:49;;;;;;;8.32;4.43;;;;;;;15.27;59.96;101836.41;4970949;28;123326;-63
2021/09/13 03:10:17;;;;;;;5.28;3.83;;;;;;;15.25;59.78;101827.59;4956879;28;124163;-64
2021/09/13 03:12:44;;;;;;;6.57;3.72;;;;;;;15.23;59.83;101824.16;4977630;28;113461;-63
2021/09/13 03:15:11;;;;;;;4.70;3.60;;;;;;;15.20;59.82;101818.97;4969366;28;113308;-63
2021/09/13 03:17:40;;;;;;;6.35;3.90;;;;;;;15.19;59.86;101817.25;4964333;28;123636;-63
2021/09/13 03:20:08;;;;;;;6.45;4.20;;;;;;;15.16;59.91;101822.72;4975175;28;123014;-63
2021/09/13 03:22:35;;;;;;;8.18;3.90;;;;;;;15.15;59.79;101826.34;4976968;28;114402;-63
2021/09/13 03:25:04;;;;;;;5.38;3.92;;;;;;;15.12;59.96;101821.13;4977619;28;112895;-63
2021/09/13 03:27:33;;;;;;;6.30;3.63;;;;;;;15.10;59.89;101823.03;4976664;28;123277;-63
2021/09/13 03:30:05;;;;;;;6.78;3.90;;;;;;;15.09;59.88;101815.97;4977068;28;123586;-63
2021/09/13 03:32:32;;;;;;;5.38;4.00;;;;;;;15.06;59.76;101810.78;4976096;28;115340;-63
2021/09/13 03:35:02;;;;;;;5.38;3.90;;;;;;;15.03;59.66;101821.56;4994418;28;114119;-63
2021/09/13 03:37:29;;;;;;;5.25;3.55;;;;;;;15.01;59.85;101818.13;4977128;28;124358;-63
2021/09/13 03:39:57;;;;;;;5.22;3.45;;;;;;;14.97;59.68;101815.63;4977618;28;124062;-63
2021/09/13 03:42:25;;;;;;;4.95;3.42;;;;;;;14.95;59.84;101819.28;4977272;28;113345;-63
2021/09/13 03:44:52;;;;;;;5.38;3.35;;;;;;;14.93;60.01;101816.69;4973587;28;113031;-63
2021/09/13 03:47:42;;;;;;;5.07;3.50;;;;;;;14.91;60.02;101829.22;4974095;28;125227;-63
2021/09/13 03:50:10;;;;;;;4.78;3.53;;;;;;;14.90;59.91;101816.84;4973268;28;123133;-63
2021/09/13 03:52:37;;;;;;;5.35;3.97;;;;;;;14.88;60.01;101817.84;4987266;28;113418;-63
2021/09/13 03:55:04;;;;;;;6.18;3.35;;;;;;;14.87;59.94;101816.97;4977162;28;113857;-63
2021/09/13 03:57:32;;;;;;;5.07;3.55;;;;;;;14.86;59.97;101825.06;4975114;28;124378;-63
2021/09/13 03:59:59;;;;;;;5.60;3.65;;;;;;;14.84;59.92;101824.25;4976379;28;123101;-63
2021/09/13 04:02:29;;;;;;;5.38;3.42;;;;;;;14.83;60.04;101819.88;4978857;28;115030;-63
2021/09/13 04:04:57;;;;;;;5.50;3.33;;;;;;;14.81;60.06;101833.28;4980202;28;113608;-63
2021/09/13 04:13:17;;;;;;;4.65;3.55;;;;;;;14.74;60.06;101810.50;4976998;28;113413;-63
2021/09/13 04:16:01;;;;;;;4.82;3.40;;;;;;;14.73;60.10;101814.09;4974293;28;113931;-63
2021/09/13 04:19:06;;;;;;;4.72;3.00;;;;;;;14.71;59.86;101810.63;4986896;28;123171;-63
2021/09/13 04:21:53;;;;;;;;;;;;;;;14.66;59.91;101812.66;4978043;28;124635;-63
2021/09/13 04:24:37;;;;;;;5.53;3.58;;;;;;;14.65;59.82;101816.25;4972691;28;114724;-63
2021/09/13 04:27:31;;;;;;;8.02;4.13;;;;;;;14.63;60.01;101812.81;4977789;22;114320;-63
2021/09/13 04:30:27;;;;;;;6.78;4.05;;;;;;;14.60;60.15;101813.81;4945844;28;124695;-63
2021/09/13 04:33:13;;;;;;;8.40;4.10;;;;;;;14.58;60.24;101811.22;4954279;28;124774;-64
2021/09/13 04:36:04;;;;;;;6.93;4.30;;;;;;;14.56;60.34;101807.72;4953738;28;115058;-64
2021/09/13 04:38:58;;;;;;;6.13;4.20;;;;;;;14.55;60.30;101806.00;4929041;28;114536;-63
2021/09/13 04:41:48;;;;;;;6.95;3.90;;;;;;;14.54;60.29;101817.59;4953444;28;123937;-64
2021/09/13 04:44:53;;;;;;;6.47;4.30;;;;;;;14.52;60.29;101810.59;4953896;28;123845;-64
2021/09/13 04:47:36;;;;;;;6.25;3.67;;;;;;;14.51;60.32;101815.06;4952939;28;113587;-64
2021/09/13 04:50:24;;;;;;;7.63;4.28;;;;;;;14.49;60.31;101822.28;4953243;28;113073;-64
2021/09/13 04:53:13;;;;;;;6.97;4.40;;;;;;;14.48;60.24;101817.88;4952939;28;123296;-64
2021/09/13 04:55:40;;;;;;;8.45;4.45;;;;;;;14.47;60.37;101816.16;4969583;28;123060;-64
2021/09/13 04:58:07;;;;;;;10.40;4.70;;;;;;;14.46;60.42;101817.06;4952607;28;114066;-64
2021/09/13 05:00:34;;;;;;;9.05;4.70;;;;;;;14.45;60.50;101815.34;4968846;28;112937;-63
2021/09/13 05:03:02;;;;;;;8.57;4.70;;;;;;;14.44;60.68;101826.94;4956977;28;123792;-64
2021/09/13 05:05:30;;;;;;;8.27;4.88;;;;;;;14.44;60.59;101820.75;4968346;28;123184;-64
2021/09/13 05:07:58;;;;;;;8.85;4.40;;;;;;;14.44;60.70;101832.28;4969194;28;113301;-64
2021/09/13 05:10:26;;;;;;;7.65;4.82;;;;;;;14.45;60.63;101826.03;4952527;28;112771;-64
2021/09/13 05:12:53;;;;;;;8.50;4.82;;;;;;;14.45;60.66;101826.03;4964095;28;124382;-64
2021/09/13 05:15:23;;;;;;;6.63;4.20;;;;;;;14.45;60.70;101831.34;4954335;28;123819;-64
2021/09/13 05:17:50;;;;;;;7.38;4.53;;;;;;;14.44;60.73;101832.28;4972592;28;114469;-64
2021/09/13 05:20:18;;;;;;;6.82;4.03;;;;;;;14.45;60.52;101836.69;4968426;28;114846;-64
2021/09/13 05:22:46;;;;;;;8.27;4.47;;;;;;;14.45;60.74;101846.44;4937411;28;123096;-64
2021/09/13 05:25:13;;;;;;;7.35;4.60;;;;;;;14.44;60.85;101840.28;4952620;28;123761;-64
2021/09/13 05:27:40;;;;;;;11.70;5.55;;;;;;;14.45;60.92;101842.00;4954016;28;113495;-64
2021/09/13 05:30:09;;;;;;;12.10;6.05;;;;;;;14.45;61.09;101847.34;4952443;28;112952;-64
2021/09/13 05:32:37;;;;;;;11.32;6.00;;;;;;;14.47;61.21;101855.28;4957608;28;123196;-61
2021/09/13 05:35:05;;;;;;;9.82;5.95;;;;;;;14.48;61.25;101849.84;4969712;28;123080;-63
2021/09/13 05:37:32;;;;;;;9.80;6.20;;;;;;;14.49;61.38;101846.25;4954553;28;113354;-64
2021/09/13 05:40:00;;;;;;;12.00;6.22;;;;;;;14.53;61.30;101849.66;4952426;28;113588;-64
2021/09/13 05:42:28;;;;;;;10.02;6.10;;;;;;;14.55;61.42;101858.44;4952051;28;123058;-64
2021/09/13 05:44:55;;;;;;;9.85;6.07;;;;;;;14.57;61.38;101862.78;4935754;28;122999;-64
2021/09/13 05:47:22;;;;;;;9.55;5.75;;;;;;;14.59;61.46;101860.06;4952907;28;113407;-64
2021/09/13 05:49:53;;;;;;;12.30;6.50;;;;;;;14.63;61.50;101855.47;4952434;28;113258;-64
2021/09/13 05:52:23;;;;;;;12.10;6.25;;;;;;;14.67;61.50;101857.03;4952311;28;123222;-64
2021/09/13 05:54:50;;;;;;;12.15;6.00;;;;;;;14.70;61.51;101864.91;4953025;28;123804;-66
2021/09/13 05:57:18;;;;;;;11.48;6.00;;;;;;;14.72;61.80;101860.38;4951360;28;114426;-64
2021/09/13 05:59:47;;;;;;;11.73;6.75;;;;;;;14.75;61.63;101855.78;4940503;28;113647;-64
2021/09/13 06:02:17;;;;;;;12.82;7.10;;;;;;;14.78;61.65;101860.94;4937350;28;123485;-64
2021/09/13 06:04:58;;;;;;;11.00;6.15;;;;;;;14.83;61.69;101867.88;4954960;28;123295;-64
2021/09/13 06:07:25;;;;;;;13.00;5.95;;;;;;;14.86;61.58;101863.28;4952331;28;114357;-64
2021/09/13 06:09:53;;;;;;;9.55;5.60;;;;;;;14.87;61.70;101851.66;4949949;28;115710;-64
2021/09/13 06:12:20;;;;;;;9.73;6.53;;;;;;;14.90;61.61;101864.84;4968920;28;123245;-64
2021/09/13 06:14:55;;;;;;;10.02;6.10;;;;;;;14.92;61.69;101862.97;4951919;28;124126;-64
2021/09/13 06:17:25;;;;;;;9.77;6.20;;;;;;;14.94;61.75;101871.78;4969318;28;113210;-64
2021/09/13 06:19:53;;;;;;;11.68;6.60;;;;;;;14.96;61.56;101864.56;4955427;28;114257;-64
2021/09/13 06:22:20;;;;;;;12.35;6.97;;;;;;;14.99;61.77;101869.75;4953058;28;124135;-64
2021/09/13 06:24:49;;;;;;;11.15;6.78;;;;;;;15.03;61.73;101869.59;4953180;28;122932;-64
2021/09/13 06:27:18;;;;;;;12.35;7.32;;;;;;;15.07;62.10;101876.50;4936143;28;113354;-64
2021/09/13 06:29:48;;;;;;;11.98;7.05;;;;;;;15.12;62.13;101871.84;4952835;28;113010;-64
2021/09/13 06:32:16;;;;;;;11.70;6.47;;;;;;;15.18;62.15;101875.09;4958043;28;123753;-64
2021/09/13 06:34:45;;;;;;;13.60;6.53;;;;;;;15.24;62.24;101873.94;4968528;28;122922;-64
2021/09/13 06:37:19;;;;;;;11.77;6.50;;;;;;;15.29;62.47;101874.56;4956027;28;113133;-64
2021/09/13 06:39:47;;;;;;;14.57;7.05;;;;;;;15.37;62.38;101880.41;4952929;28;113336;-64
2021/09/13 06:42:14;;;;;;;13.68;7.35;;;;;;;15.44;62.37;101888.09;4951472;28;124242;-64
2021/09/13 06:44:47;;;;;;;13.38;7.13;;;;;;;15.49;62.32;101888.75;4934594;28;124017;-64
2021/09/13 06:49:57;;;;;;;13.65;6.35;;;;;;;15.58;62.33;101885.63;4951703;28;113771;-64
2021/09/13 06:52:25;;;;;;;9.75;6.63;;;;;;;15.63;62.43;101891.59;4968019;28;123431;-64
2021/09/13 06:54:52;;;;;;;12.70;7.13;;;;;;;15.70;62.48;101887.69;4967449;28;123181;-64
2021/09/13 06:57:19;;;;;;;12.98;7.45;;;;;;;15.77;62.52;101888.28;4968098;28;113904;-64
2021/09/13 06:59:46;;;;;;;11.52;7.05;;;;;;;15.86;62.64;101881.59;4953782;28;114949;-64
2021/09/13 07:02:14;;;;;;;12.60;7.38;;;;;;;15.93;62.60;101883.88;4970001;28;124041;-64
2021/09/13 07:04:41;;;;;;;12.23;6.97;;;;;;;16.04;62.70;101874.47;4969656;28;124423;-64
2021/09/13 07:07:08;;;;;;;10.32;6.90;;;;;;;16.12;62.91;101867.78;4952287;28;114333;-64
2021/09/13 07:09:36;;;;;;;11.63;7.43;;;;;;;16.23;63.09;101869.03;4937200;28;113953;-64
2021/09/13 07:12:04;;;;;;;11.23;6.95;;;;;;;16.35;62.98;101884.44;4952241;28;125012;-64
2021/09/13 07:14:31;;;;;;;11.60;6.82;;;;;;;16.48;63.10;101885.50;4953234;28;123899;-64
2021/09/13 07:17:01;;;;;;;10.15;6.63;;;;;;;16.63;63.01;101885.59;4953928;28;114763;-64
2021/09/13 07:19:28;;;;;;;11.85;6.93;;;;;;;16.77;63.07;101884.88;4951363;28;113498;-64
2021/09/13 07:21:57;;;;;;;10.55;6.72;;;;;;;16.90;63.30;101886.81;4950341;28;124225;-64
2021/09/13 07:24:24;;;;;;;11.35;7.07;;;;;;;17.05;62.95;101884.25;4952292;28;124368;-64
2021/09/13 07:26:51;;;;;;;10.00;7.20;;;;;;;17.19;62.86;101881.66;4951114;28;114252;-64
2021/09/13 07:29:18;;;;;;;10.55;7.65;;;;;;;17.31;62.79;101886.34;4949844;28;114806;-64
2021/09/13 07:31:45;;;;;;;12.10;7.60;;;;;;;17.42;62.75;101887.53;4949826;28;124094;-64
2021/09/13 07:34:12;;;;;;;10.90;7.22;;;;;;;17.50;62.59;101882.59;4951003;28;123752;-64
2021/09/13 07:36:39;;;;;;;12.82;7.03;;;;;;;17.58;62.71;101883.00;4950921;28;114447;-64
2021/09/13 07:39:07;;;;;;;10.20;6.80;;;;;;;17.69;62.67;101888.63;4934904;28;113431;-64
2021/09/13 07:41:34;;;;;;;11.35;7.03;;;;;;;17.79;62.67;101888.06;4949921;28;124108;-62
2021/09/13 07:44:01;;;;;;;11.93;7.25;;;;;;;17.90;62.37;101888.34;4950144;28;123819;-62
2021/09/13 07:46:28;;;;;;;12.20;7.50;;;;;;;18.02;62.27;101897.47;4951665;28;115455;-62
2021/09/13 07:48:55;;;;;;;12.02;7.60;;;;;;;18.09;62.21;101897.00;4951262;28;114703;-62
2021/09/13 07:51:23;;;;;;;16.13;7.75;;;;;;;18.18;62.46;101898.28;4949544;28;124569;-62
2021/09/13 07:53:50;;;;;;;12.80;7.63;;;;;;;18.31;62.35;101898.41;4943143;28;124245;-62
2021/09/13 07:56:17;;;;;;;12.98;7.55;;;;;;;18.41;62.31;101898.69;4961530;28;114409;-62
2021/09/13 07:58:44;;;;;;;10.77;6.88;;;;;;;18.52;62.21;101906.09;4951779;28;114150;-62
2021/09/13 08:01:11;;;;;;;11.50;7.20;;;;;;;18.61;62.55;101900.13;4956068;28;124317;-66
2021/09/13 08:03:39;;;;;;;9.57;5.68;;;;;;;18.74;62.43;101911.84;4953231;28;126366;-62
2021/09/13 08:06:07;;;;;;;8.93;5.72;;;;;;;18.88;62.28;101907.47;4955258;28;114988;-62
2021/09/13 08:08:35;;;;;;;8.65;6.05;;;;;;;19.04;62.47;101910.88;4954801;28;113999;-62
2021/09/13 08:11:03;;;;;;;11.10;6.13;;;;;;;19.21;62.42;101921.44;4952383;28;124080;-62
2021/09/13 08:13:30;;;;;;;8.95;6.00;;;;;;;19.38;62.36;101916.75;4953608;28;124051;-62
2021/09/13 08:15:58;;;;;;;8.63;5.40;;;;;;;19.54;62.06;101917.50;4954709;28;115245;-62
2021/09/13 08:18:27;;;;;;;9.73;5.70;;;;;;;19.73;61.95;101927.91;4954010;28;113227;-62
2021/09/13 08:20:54;;;;;;;7.72;5.10;;;;;;;19.89;61.94;101921.50;4952291;28;124296;-62
2021/09/13 08:23:24;;;;;;;9.32;5.50;;;;;;;20.03;61.88;101927.69;4952203;28;123937;-62
2021/09/13 08:25:52;;;;;;;10.05;5.30;;;;;;;20.17;61.39;101926.75;4954155;28;114439;-62
2021/09/13 08:28:22;;;;;;;9.70;5.60;;;;;;;20.30;61.26;101926.75;4952591;28;114174;-62
2021/09/13 08:30:49;;;;;;;8.10;4.70;;;;;;;20.41;61.13;101934.94;4954252;28;124347;-62
2021/09/13 08:33:17;;;;;;;6.20;3.97;;;;;;;20.51;61.00;101942.38;4952431;28;124319;-62
2021/09/13 08:35:45;;;;;;;6.72;3.90;;;;;;;20.63;60.79;101948.81;4953141;28;114916;-62
2021/09/13 08:38:13;;;;;;;4.75;3.47;;;;;;;20.72;60.25;101943.63;4952830;28;114870;-62
2021/09/13 08:40:41;;;;;;;7.40;3.28;;;;;;;20.79;59.89;101949.41;4952926;28;123812;-62
2021/09/13 08:43:10;;;;;;;6.57;3.63;;;;;;;20.83;59.86;101950.06;4952379;28;123878;-62
2021/09/13 08:45:59;;;;;;;8.27;4.00;;;;;;;20.88;59.60;101947.91;4954980;28;114601;-62
2021/09/13 08:48:34;;;;;;;6.30;3.72;;;;;;;20.92;59.66;101944.88;4955842;28;113918;-62
2021/09/13 08:53:32;;;;;;;7.18;4.30;;;;;;;21.03;59.46;101941.44;4952744;28;123713;-62
2021/09/13 08:56:02;;;;;;;9.23;4.85;;;;;;;21.12;59.65;101938.06;4954413;28;114315;-62
2021/09/13 08:58:33;;;;;;;8.70;4.50;;;;;;;21.24;59.57;101938.16;4954037;28;114470;-64
2021/09/13 09:01:01;;;;;;;4.93;3.20;;;;;;;21.39;59.59;101942.41;4955168;28;124788;-64
2021/09/13 09:03:29;;;;;;;6.38;3.20;;;;;;;21.50;59.20;101930.88;4938956;28;123873;-64
2021/09/13 09:05:56;;;;;;;4.15;2.10;;;;;;;21.60;58.35;101939.16;4954012;28;114496;-63
2021/09/13 09:08:29;;;;;;;5.65;3.15;;;;;;;21.63;58.44;101930.84;4952153;28;112815;-62
2021/09/13 09:11:02;;;;;;;5.35;2.75;;;;;;;21.65;58.24;101926.19;4951953;28;124167;-62
2021/09/13 09:13:43;;;;;;;5.45;2.50;;;;;;;21.70;57.94;101934.78;4951504;28;125354;-63
2021/09/13 09:16:14;;;;;;;4.97;2.58;;;;;;;21.75;57.96;101933.44;4954088;28;114906;-62
2021/09/13 09:18:43;;;;;;;4.68;2.83;;;;;;;21.84;58.12;101937.31;4953315;28;113671;-62
2021/09/13 09:21:13;;;;;;;4.50;2.70;;;;;;;21.96;57.82;101940.91;4954489;28;124000;-62
2021/09/13 09:23:58;;;;;;;5.82;2.50;;;;;;;22.06;57.87;101943.78;4954475;28;123051;-63
2021/09/13 09:26:29;;;;;;;4.57;2.10;;;;;;;22.17;57.56;101939.28;4961095;28;115596;-62
2021/09/13 09:28:58;;;;;;;6.70;3.15;;;;;;;22.30;57.19;101939.22;4950827;28;115100;-62
2021/09/13 09:31:38;;;;;;;6.50;3.42;;;;;;;22.39;57.12;101942.19;4961321;28;124670;-62
2021/09/13 09:34:20;;;;;;;5.80;3.13;;;;;;;22.47;56.90;101946.03;4950604;28;123640;-63
2021/09/13 09:37:10;;;;;;;7.20;3.35;;;;;;;22.58;56.81;101953.25;4965512;28;114297;-62
2021/09/13 09:39:49;;;;;;;7.03;2.92;;;;;;;22.68;56.72;101943.47;4947664;28;113604;-62
2021/09/13 09:42:27;;;;;;;6.10;3.22;;;;;;;22.77;56.12;101935.59;4966306;28;124782;-62
2021/09/13 09:44:55;;;;;;;4.72;2.72;;;;;;;22.85;55.66;101938.53;4960724;28;124191;-62
2021/09/13 09:47:23;;;;;;;3.60;2.47;;;;;;;22.90;55.49;101937.19;4981762;28;114420;-64
2021/09/13 09:49:53;;;;;;;4.15;2.60;;;;;;;22.95;54.77;101934.13;4950946;28;114039;-64
2021/09/13 09:52:40;;;;;;;4.75;2.70;;;;;;;22.97;54.72;101926.78;4951087;28;124043;-64
2021/09/13 09:55:09;;;;;;;5.40;2.47;;;;;;;22.99;54.31;101930.19;4951608;28;124177;-64
2021/09/13 09:57:37;;;;;;;3.97;2.45;;;;;;;22.99;54.39;101935.59;4952655;28;114392;-63
2021/09/13 10:00:24;;;;;;;5.20;2.58;;;;;;;23.04;54.25;101929.88;4965504;28;114320;-62
2021/09/13 10:02:52;;;;;;;5.03;2.55;;;;;;;23.09;54.21;101923.13;4952737;28;123009;-62
2021/09/13 10:05:22;;;;;;;4.78;2.65;;;;;;;23.12;53.84;101920.16;4951334;28;123984;-62
2021/09/13 10:07:50;;;;;;;3.50;2.25;;;;;;;23.15;53.72;101912.78;4940264;28;113987;-63
2021/09/13 10:10:19;;;;;;;5.50;2.35;;;;;;;23.18;53.85;101915.25;4952838;28;114681;-62
2021/09/13 10:12:48;;;;;;;5.05;2.45;;;;;;;23.27;53.98;101914.50;4951060;28;124672;-63
2021/09/13 10:15:17;;;;;;;5.13;2.75;;;;;;;23.37;53.96;101912.72;4953877;28;123745;-62
2021/09/13 10:17:44;;;;;;;4.50;2.00;;;;;;;23.48;53.40;101915.41;4965953;28;115058;-64
2021/09/13 10:20:13;;;;;;;3.47;2.20;;;;;;;23.57;52.80;101918.34;4948600;28;114774;-64
2021/09/13 10:22:43;;;;;;;3.13;2.00;;;;;;;23.61;52.75;101917.09;4966933;28;124206;-64
2021/09/13 10:25:13;;;;;;;4.00;2.10;;;;;;;23.67;53.04;101913.88;4949934;28;122899;-64
2021/09/13 10:27:43;;;;;;;4.55;2.08;;;;;;;23.75;52.71;101916.78;4958948;22;115086;-65
2021/09/13 10:30:13;;;;;;;3.95;1.88;;;;;;;23.83;52.31;101914.34;4949570;28;114071;-65
2021/09/13 10:32:42;;;;;;;2.80;1.60;;;;;;;23.89;52.13;101908.41;4950480;28;123929;-65
2021/09/13 10:35:11;;;;;;;3.60;1.52;;;;;;;23.93;51.62;101918.97;4967864;28;122770;-64
2021/09/13 10:37:45;;;;;;;4.90;2.00;;;;;;;23.92;51.42;101906.44;4952156;28;114648;-65
2021/09/13 10:40:16;;;;;;;4.38;2.03;;;;;;;23.89;50.85;101908.41;4951382;28;113237;-67
2021/09/13 10:43:12;;;;;;;5.55;2.13;;;;;;;23.83;50.93;101903.53;4952108;28;123962;-68
2021/09/13 10:45:41;;;;;;;5.93;2.05;;;;;;;23.78;50.77;101900.31;4947628;28;122919;-67
2021/09/13 10:48:17;;;;;;;3.10;1.95;;;;;;;23.77;50.53;101906.72;4950712;28;113727;-67
2021/09/13 10:50:55;;;;;;;2.97;1.85;;;;;;;23.74;50.56;101892.59;4952809;28;113709;-67
2021/09/13 10:53:22;;;;;;;4.28;2.20;;;;;;;23.74;50.36;101893.44;4950047;28;124526;-67
2021/09/13 10:56:00;;;;;;;3.97;1.83;;;;;;;23.76;50.41;101896.88;4952017;28;123995;-67
2021/09/13 10:58:30;;;;;;;3.85;1.80;;;;;;;23.84;50.77;101894.41;4950470;28;114409;-67
2021/09/13 11:01:00;;;;;;;2.78;1.52;;;;;;;23.92;50.37;101890.19;4952517;28;114484;-67
2021/09/13 11:03:34;;;;;;;3.10;2.25;;;;;;;23.98;50.02;101885.13;4947232;28;123402;-67
2021/09/13 11:06:06;;;;;;;4.23;1.90;;;;;;;24.02;50.04;101891.97;4943853;28;123867;-67
2021/09/13 11:08:37;;;;;;;5.43;2.03;;;;;;;24.05;49.58;101885.44;4949035;28;115355;-67
2021/09/13 11:11:25;;;;;;;3.80;1.67;;;;;;;24.04;49.69;101879.19;4953651;28;115266;-64
2021/09/13 11:14:01;;;;;;;2.95;1.65;;;;;;;24.02;49.19;101877.59;4939015;28;124107;-64
2021/09/13 11:16:30;;;;;;;3.03;1.73;;;;;;;24.01;49.07;101878.59;4938880;28;124031;-64
2021/09/13 11:19:02;;;;;;;3.58;1.80;;;;;;;24.03;48.94;101877.44;4936907;28;115027;-64
2021/09/13 11:21:34;;;;;;;4.78;2.00;;;;;;;24.09;49.10;101876.06;4952434;28;113125;-64
2021/09/13 11:24:06;;;;;;;3.20;1.75;;;;;;;24.16;48.78;101871.84;4951790;28;124437;-65
2021/09/13 11:26:47;;;;;;;4.07;1.77;;;;;;;24.23;48.51;101870.31;4952440;28;123979;-67
2021/09/13 11:29:34;;;;;;;3.53;1.70;;;;;;;24.31;48.42;101866.09;4950324;28;114260;-67
2021/09/13 11:32:15;;;;;;;2.95;1.80;;;;;;;24.36;48.60;101853.88;4951006;28;114147;-67
2021/09/13 11:34:46;;;;;;;4.50;1.90;;;;;;;24.43;48.50;101862.28;4954560;28;123158;-67
2021/09/13 11:37:14;;;;;;;3.08;1.80;;;;;;;24.53;48.73;101857.84;4954851;28;124813;-67
2021/09/13 11:40:03;;;;;;;2.70;1.50;;;;;;;24.63;48.06;101847.88;4952956;28;114466;-67
2021/09/13 11:42:33;;;;;;;4.15;2.10;;;;;;;24.72;47.72;101848.91;4954809;28;114419;-67
2021/09/13 11:45:12;;;;;;;3.63;1.83;;;;;;;24.77;47.60;101843.97;4955264;28;124422;-67